Time;durP1;ratioP1;P1;durP2;ratioP2;P2;SDS_P1;SDS_P2;PMS_P1;PMS_P2;Temp;Humidity;BMP_temperature;BMP_pressure;BME280_temperature;BME280_humidity;BME280_pressure;Samples;Min_cycle;Max_cycle;Signal;HPM_P1;HPM_P2
2023/03/13 13:06:14;;;;;;;2.70;1.30;;;15.60;99.90;;;;;;5128007;27;20344;-87
2023/03/13 13:08:52;;;;;;;1.97;1.30;;;15.40;99.90;;;;;;5107386;28;20394;-87
2023/03/13 13:11:33;;;;;;;2.10;1.30;;;15.70;99.90;;;;;;5126825;27;20379;-87
2023/03/13 13:14:15;;;;;;;3.67;1.50;;;15.90;99.90;;;;;;5106518;28;20479;-87
2023/03/13 13:16:47;;;;;;;2.35;1.35;;;15.80;99.90;;;;;;5109346;28;20477;-87
2023/03/13 13:19:22;;;;;;;1.67;1.13;;;15.80;99.90;;;;;;5107301;28;20520;-87
2023/03/13 13:22:26;;;;;;;1.83;1.48;;;15.70;99.90;;;;;;5126176;28;20380;-88
2023/03/13 13:25:19;;;;;;;1.80;1.23;;;15.30;99.90;;;;;;5109802;28;20446;-87
2023/03/13 13:27:47;;;;;;;1.90;1.30;;;15.50;99.90;;;;;;5105597;27;20382;-88
2023/03/13 13:30:35;;;;;;;2.85;1.33;;;15.60;99.90;;;;;;5113491;28;20729;-88
2023/03/13 13:33:29;;;;;;;;;;;;;;;;;;;;;
2023/03/13 13:48:41;;;;;;;2.33;1.17;;;15.60;99.90;;;;;;5086938;28;20913;-87
2023/03/13 13:51:10;;;;;;;1.80;1.33;;;15.60;99.90;;;;;;5067741;28;20415;-87
2023/03/13 13:54:00;;;;;;;2.72;1.50;;;15.50;99.90;;;;;;5074416;28;20399;-86
2023/03/13 13:56:35;;;;;;;2.00;1.40;;;15.50;99.90;;;;;;5075960;28;20474;-86
2023/03/13 13:59:19;;;;;;;2.13;1.40;;;15.60;99.90;;;;;;5069850;28;20380;-86
2023/03/13 14:01:46;;;;;;;2.85;1.50;;;15.60;99.90;;;;;;5072568;28;20418;-87
2023/03/13 14:04:26;;;;;;;2.78;1.60;;;15.50;99.90;;;;;;5073048;28;20402;-87
2023/03/13 14:07:00;;;;;;;3.30;1.42;;;15.50;99.90;;;;;;5071369;28;20377;-87
2023/03/13 14:09:46;;;;;;;4.77;1.73;;;15.50;99.90;;;;;;5071149;28;20387;-85
2023/03/13 14:12:34;;;;;;;2.78;1.60;;;15.70;99.90;;;;;;5073649;28;20711;-85
2023/03/13 14:15:18;;;;;;;2.70;1.70;;;15.70;99.90;;;;;;5071639;28;20806;-87
2023/03/13 14:17:50;;;;;;;2.20;1.50;;;15.70;99.90;;;;;;5076518;28;20476;-86
2023/03/13 14:20:54;;;;;;;3.20;1.90;;;15.80;99.90;;;;;;5074951;28;21146;-86
2023/03/13 14:23:38;;;;;;;2.55;1.40;;;15.60;99.90;;;;;;5068264;28;20482;-86
2023/03/13 14:26:10;;;;;;;2.85;1.70;;;15.70;99.90;;;;;;5073546;28;20383;-87
2023/03/13 14:28:41;;;;;;;3.38;2.03;;;15.60;99.90;;;;;;5072228;28;20375;-87
2023/03/13 14:31:19;;;;;;;3.00;1.45;;;15.60;99.90;;;;;;5075099;28;20374;-88
2023/03/13 14:33:45;;;;;;;2.30;1.52;;;15.70;99.90;;;;;;5071020;28;20414;-87
2023/03/13 14:36:11;;;;;;;3.10;1.40;;;16.00;99.90;;;;;;5073311;28;20401;-87
2023/03/13 14:38:51;;;;;;;3.43;1.70;;;16.10;99.90;;;;;;5075337;28;20378;-87
2023/03/13 14:41:44;;;;;;;2.55;1.65;;;15.80;99.90;;;;;;5068013;28;20892;-86
2023/03/13 14:44:27;;;;;;;2.85;1.48;;;15.70;99.90;;;;;;5060006;28;20800;-86
2023/03/13 14:46:59;;;;;;;3.07;1.77;;;15.70;99.90;;;;;;5061242;28;20444;-86
2023/03/13 14:49:30;;;;;;;2.40;1.65;;;15.90;99.90;;;;;;5042195;28;20393;-87
2023/03/13 14:52:14;;;;;;;2.88;1.52;;;16.00;99.90;;;;;;5054508;28;20389;-87
2023/03/13 14:54:55;;;;;;;2.78;1.70;;;16.10;99.90;;;;;;5060535;28;20383;-87
2023/03/13 14:57:31;;;;;;;3.83;1.52;;;16.20;99.90;;;;;;5060556;28;20504;-88
2023/03/13 15:00:25;;;;;;;2.05;1.48;;;16.10;99.90;;;;;;5060543;28;20463;-87
2023/03/13 15:03:21;;;;;;;4.47;1.50;;;16.10;99.90;;;;;;5064755;28;20403;-88
2023/03/13 15:05:49;;;;;;;1.88;1.50;;;16.00;99.90;;;;;;5079888;28;20390;-87
2023/03/13 15:08:21;;;;;;;3.50;1.50;;;16.00;99.90;;;;;;5082076;28;20394;-87
2023/03/13 15:10:50;;;;;;;2.17;1.40;;;15.90;99.90;;;;;;5064563;28;20760;-89
2023/03/13 15:13:24;;;;;;;2.78;1.42;;;15.90;99.90;;;;;;5050876;28;20389;-86
2023/03/13 15:15:55;;;;;;;2.13;1.20;;;16.10;99.90;;;;;;5051046;28;20662;-86
2023/03/13 15:18:31;;;;;;;1.98;1.65;;;16.10;99.90;;;;;;5042632;28;20380;-86
2023/03/13 15:21:09;;;;;;;2.70;1.58;;;16.00;99.90;;;;;;5044343;28;20448;-87
2023/03/13 15:24:05;;;;;;;2.75;1.60;;;15.80;99.90;;;;;;5039744;28;20424;-88
2023/03/13 15:26:31;;;;;;;1.92;1.40;;;15.70;99.90;;;;;;5060420;28;20390;-86
2023/03/13 15:29:01;;;;;;;2.63;1.50;;;15.60;99.90;;;;;;5057979;28;20379;-87
2023/03/13 15:31:28;;;;;;;1.67;1.42;;;15.50;99.90;;;;;;5058956;28;20488;-85
2023/03/13 15:33:57;;;;;;;2.15;1.55;;;15.50;99.90;;;;;;5059927;28;20387;-87
2023/03/13 15:36:24;;;;;;;2.42;1.30;;;15.40;99.90;;;;;;5059012;28;20460;-88
2023/03/13 15:38:50;;;;;;;2.75;1.60;;;15.40;99.90;;;;;;5057977;28;20401;-88
2023/03/13 15:41:23;;;;;;;1.88;1.60;;;15.20;99.90;;;;;;5060446;28;20374;-87
2023/03/13 15:43:54;;;;;;;2.03;1.40;;;15.20;99.90;;;;;;5059179;28;20863;-87
2023/03/13 15:46:31;;;;;;;3.30;1.80;;;15.10;99.90;;;;;;5055599;28;20505;-86
2023/03/13 15:48:57;;;;;;;3.03;1.45;;;15.10;99.90;;;;;;5056896;28;20799;-86
2023/03/13 15:51:23;;;;;;;3.38;1.60;;;15.10;99.90;;;;;;5057287;28;20380;-86
2023/03/13 15:53:53;;;;;;;2.50;1.70;;;15.00;99.90;;;;;;5057996;28;20791;-87
2023/03/13 15:56:22;;;;;;;2.90;1.80;;;15.10;99.90;;;;;;5055434;28;20882;-86
2023/03/13 15:59:13;;;;;;;2.30;1.70;;;15.10;99.90;;;;;;5051878;28;20375;-87
2023/03/13 16:01:45;;;;;;;5.38;1.75;;;15.10;99.90;;;;;;5036198;28;20385;-85
2023/03/13 16:04:12;;;;;;;3.83;1.80;;;15.10;99.90;;;;;;5039278;28;20380;-87
2023/03/13 16:06:40;;;;;;;2.38;1.60;;;15.00;99.90;;;;;;5043575;28;20400;-85
2023/03/13 16:09:06;;;;;;;3.17;2.30;;;14.90;99.90;;;;;;5050462;28;20485;-86
2023/03/13 16:11:33;;;;;;;3.45;1.70;;;14.90;99.90;;;;;;5049283;28;20391;-85
2023/03/13 16:13:59;;;;;;;5.00;2.00;;;14.80;99.90;;;;;;5043175;28;20746;-84
2023/03/13 16:16:33;;;;;;;1.98;1.65;;;14.90;99.90;;;;;;5048755;28;20414;-86
2023/03/13 16:27:11;;;;;;;3.13;1.77;;;15.10;99.90;;;;;;4997754;28;20379;-85
2023/03/13 16:29:41;;;;;;;2.83;1.63;;;15.00;99.90;;;;;;4933185;28;20542;-85
2023/03/13 16:32:48;;;;;;;;;;;;;;;;;;;;;
2023/03/13 16:38:50;;;;;;;3.90;2.00;;;14.90;99.90;;;;;;5017319;28;20722;-85
2023/03/13 16:41:25;;;;;;;3.07;1.97;;;15.00;99.90;;;;;;5019807;28;20386;-86
2023/03/13 16:47:22;;;;;;;3.92;2.40;;;15.00;99.90;;;;;;5052242;28;20381;-87
2023/03/13 16:49:48;;;;;;;4.13;2.63;;;14.90;99.90;;;;;;5056889;28;20383;-87
2023/03/13 16:52:34;;;;;;;2.72;1.95;;;14.80;99.90;;;;;;5059785;28;20372;-87
2023/03/13 16:55:00;;;;;;;2.38;1.90;;;14.80;99.90;;;;;;5058483;28;20464;-86
2023/03/13 16:57:35;;;;;;;3.47;1.98;;;14.70;99.90;;;;;;5059076;28;20566;-86
2023/03/13 17:00:03;;;;;;;3.40;2.00;;;14.70;99.90;;;;;;5056036;28;20372;-87
2023/03/13 17:02:29;;;;;;;3.23;2.10;;;14.70;99.90;;;;;;5057150;28;20493;-86
2023/03/13 17:04:55;;;;;;;1.88;1.60;;;14.60;99.90;;;;;;5057851;28;20381;-87
2023/03/13 17:07:23;;;;;;;4.20;2.97;;;14.60;99.90;;;;;;5057651;28;20746;-85
2023/03/13 17:09:50;;;;;;;4.93;2.90;;;14.50;99.90;;;;;;5054978;28;20393;-86
2023/03/13 17:12:17;;;;;;;3.47;2.22;;;14.40;99.90;;;;;;5058336;28;20360;-83
2023/03/13 17:14:47;;;;;;;2.80;2.00;;;14.40;99.90;;;;;;5057502;28;20408;-87
2023/03/13 17:17:19;;;;;;;3.03;2.38;;;14.40;99.90;;;;;;5058418;28;20419;-87
2023/03/13 17:19:45;;;;;;;2.70;2.50;;;14.50;99.90;;;;;;5056839;28;20433;-87
2023/03/13 17:22:13;;;;;;;4.30;2.92;;;14.50;99.90;;;;;;5061209;28;20377;-86
2023/03/13 17:24:39;;;;;;;3.05;2.50;;;14.40;99.90;;;;;;5058728;28;20386;-87
2023/03/13 17:27:13;;;;;;;2.10;1.90;;;14.40;99.90;;;;;;5056588;28;20398;-87
2023/03/13 17:29:39;;;;;;;2.58;1.98;;;14.30;99.90;;;;;;5057196;28;20467;-88
2023/03/13 17:32:05;;;;;;;2.40;2.20;;;14.20;99.90;;;;;;5058774;28;20457;-86
2023/03/13 17:34:33;;;;;;;2.55;2.03;;;14.10;99.90;;;;;;5054742;28;20368;-88
2023/03/13 17:37:04;;;;;;;2.00;1.80;;;14.00;99.90;;;;;;5056713;28;20499;-87
2023/03/13 17:39:30;;;;;;;2.80;2.00;;;14.00;99.90;;;;;;5057044;28;20416;-86
2023/03/13 17:41:59;;;;;;;2.60;2.07;;;14.00;99.90;;;;;;5058633;28;20954;-89
2023/03/13 17:44:24;;;;;;;2.60;2.17;;;14.00;99.90;;;;;;5049795;28;20407;-87
2023/03/13 17:46:51;;;;;;;2.07;1.87;;;14.00;99.90;;;;;;5055126;28;21069;-87
2023/03/13 17:49:19;;;;;;;2.50;1.80;;;13.90;99.90;;;;;;5056190;28;20383;-87
2023/03/13 17:51:47;;;;;;;2.10;1.90;;;14.00;99.90;;;;;;5059203;28;20383;-87
2023/03/13 17:54:17;;;;;;;2.50;1.90;;;14.00;99.90;;;;;;5048199;28;20388;-87
2023/03/13 17:56:44;;;;;;;3.78;1.90;;;14.00;99.90;;;;;;5074258;28;20412;-87
2023/03/13 17:59:27;;;;;;;4.53;1.88;;;14.00;99.90;;;;;;5067656;28;20372;-88
2023/03/13 18:02:00;;;;;;;2.90;1.70;;;14.00;99.90;;;;;;5056226;28;20410;-88
2023/03/13 18:04:26;;;;;;;2.53;2.13;;;14.00;99.90;;;;;;5053725;28;20405;-86
2023/03/13 18:06:52;;;;;;;2.30;2.10;;;14.10;99.90;;;;;;5057467;28;20821;-86
2023/03/13 18:09:20;;;;;;;3.22;2.13;;;14.00;99.90;;;;;;5057702;28;20399;-86
2023/03/13 18:11:48;;;;;;;2.80;2.00;;;14.10;99.90;;;;;;5055496;28;20918;-87
2023/03/13 18:14:14;;;;;;;3.00;2.30;;;14.00;99.90;;;;;;5058005;28;21329;-86
2023/03/13 18:16:47;;;;;;;3.30;1.83;;;14.00;99.90;;;;;;5061881;28;20500;-89
2023/03/13 18:19:19;;;;;;;2.75;2.25;;;14.00;99.90;;;;;;5061691;28;20385;-87
2023/03/13 18:21:47;;;;;;;3.85;1.83;;;13.80;99.90;;;;;;5053588;28;20830;-88
2023/03/13 18:24:15;;;;;;;2.17;1.98;;;13.70;99.90;;;;;;5059656;28;20387;-88
2023/03/13 18:26:45;;;;;;;3.28;2.38;;;13.70;99.90;;;;;;5061677;28;20896;-88
2023/03/13 18:29:24;;;;;;;2.53;2.33;;;13.90;99.90;;;;;;5063312;28;20868;-87
2023/03/13 18:31:54;;;;;;;1.90;1.80;;;13.90;99.90;;;;;;5057127;28;20386;-88
2023/03/13 18:34:20;;;;;;;2.63;2.10;;;14.00;99.90;;;;;;5059223;28;20507;-88
2023/03/13 18:36:46;;;;;;;3.50;2.03;;;13.90;99.90;;;;;;5064501;28;20409;-87
2023/03/13 18:39:16;;;;;;;2.92;1.65;;;13.80;99.90;;;;;;5062787;28;20873;-87
2023/03/13 18:41:45;;;;;;;1.67;1.50;;;13.80;99.90;;;;;;5058967;28;20399;-88
2023/03/13 18:44:14;;;;;;;3.75;1.80;;;13.90;99.90;;;;;;5061281;28;20475;-89
2023/03/13 18:46:45;;;;;;;2.35;1.70;;;13.70;99.90;;;;;;5061742;28;20463;-86
2023/03/13 18:49:20;;;;;;;2.10;1.90;;;13.70;99.90;;;;;;5051635;28;20815;-88
2023/03/13 18:51:52;;;;;;;3.33;1.60;;;13.70;99.90;;;;;;5049167;28;20391;-89
2023/03/13 18:54:18;;;;;;;2.10;1.57;;;13.60;99.90;;;;;;5059202;28;20458;-88
2023/03/13 18:56:46;;;;;;;2.20;2.00;;;13.50;99.90;;;;;;5057427;28;20498;-88
2023/03/13 18:59:16;;;;;;;2.00;1.85;;;13.70;99.90;;;;;;5065134;28;20494;-88
2023/03/13 19:01:42;;;;;;;2.05;1.85;;;13.60;99.90;;;;;;5063161;28;20380;-88
2023/03/13 19:04:32;;;;;;;2.45;2.15;;;13.60;99.90;;;;;;5059528;28;20378;-87
2023/03/13 19:07:01;;;;;;;2.45;1.90;;;13.70;99.90;;;;;;5053552;28;21259;-88
2023/03/13 19:09:27;;;;;;;2.25;2.05;;;13.50;99.90;;;;;;5063863;28;20485;-88
2023/03/13 19:11:52;;;;;;;2.05;1.70;;;13.60;99.90;;;;;;5058702;28;20890;-88
2023/03/13 19:17:42;;;;;;;2.17;1.92;;;13.60;99.90;;;;;;5051506;28;20505;-89
2023/03/13 19:20:16;;;;;;;2.67;1.70;;;13.70;99.90;;;;;;5054476;28;20987;-87
2023/03/13 19:22:42;;;;;;;2.60;1.77;;;13.60;99.90;;;;;;5047078;28;20438;-88
2023/03/13 19:25:08;;;;;;;3.27;1.87;;;13.70;99.90;;;;;;5044085;28;20455;-88
2023/03/13 19:27:39;;;;;;;3.47;2.00;;;13.70;99.90;;;;;;5061861;28;20440;-88
2023/03/13 19:30:28;;;;;;;3.20;1.90;;;13.60;99.90;;;;;;5057295;28;20372;-88
2023/03/13 19:32:54;;;;;;;4.10;2.13;;;13.70;99.90;;;;;;5052804;28;20451;-87
2023/03/13 19:35:20;;;;;;;3.10;2.40;;;13.60;99.90;;;;;;5051927;28;20376;-87
2023/03/13 19:37:46;;;;;;;3.17;2.30;;;13.60;99.90;;;;;;5051500;28;20457;-87
2023/03/13 19:40:24;;;;;;;2.90;2.00;;;13.50;99.90;;;;;;5058158;28;20466;-87
2023/03/13 19:42:50;;;;;;;2.93;1.97;;;13.50;99.90;;;;;;5073269;28;20873;-87
2023/03/13 19:45:17;;;;;;;1.90;1.80;;;13.40;99.90;;;;;;5056294;28;20424;-87
2023/03/13 19:47:43;;;;;;;2.17;1.90;;;13.40;99.90;;;;;;5051958;28;20453;-87
2023/03/13 19:50:21;;;;;;;2.97;1.77;;;13.50;99.90;;;;;;5052595;28;20403;-87
2023/03/13 19:52:47;;;;;;;2.72;1.90;;;13.40;99.90;;;;;;5054163;28;20446;-88
2023/03/13 19:55:13;;;;;;;2.25;2.05;;;13.20;99.90;;;;;;5051839;28;21326;-87
2023/03/13 19:57:39;;;;;;;3.13;2.00;;;13.30;99.90;;;;;;5052456;28;20933;-87
2023/03/13 20:00:21;;;;;;;2.70;1.83;;;13.30;99.90;;;;;;5052679;28;20376;-90
2023/03/13 20:02:48;;;;;;;2.10;1.90;;;13.30;99.90;;;;;;5051783;28;20433;-87
2023/03/13 20:05:14;;;;;;;2.30;2.10;;;13.20;99.90;;;;;;5051907;28;20518;-88
2023/03/13 20:07:40;;;;;;;2.47;2.08;;;13.20;99.90;;;;;;5051578;28;20376;-88
2023/03/13 20:10:06;;;;;;;4.00;2.40;;;13.20;99.90;;;;;;5051679;28;20387;-88
2023/03/13 20:12:33;;;;;;;3.28;2.58;;;13.30;99.90;;;;;;5050965;28;20376;-89
2023/03/13 20:14:58;;;;;;;3.15;2.55;;;13.30;99.90;;;;;;5050671;28;20391;-87
2023/03/13 20:17:27;;;;;;;4.15;2.35;;;13.30;99.90;;;;;;5051334;28;20411;-87
2023/03/13 20:19:58;;;;;;;2.53;2.33;;;13.30;99.90;;;;;;5049407;28;20479;-89
2023/03/13 20:22:24;;;;;;;3.70;2.25;;;13.20;99.90;;;;;;5043209;28;20851;-88
2023/03/13 20:25:12;;;;;;;3.67;2.40;;;13.20;99.90;;;;;;5040547;28;20409;-87
2023/03/13 20:27:42;;;;;;;3.35;2.13;;;13.10;99.90;;;;;;5046098;28;20393;-88
2023/03/13 20:30:17;;;;;;;3.30;2.60;;;13.10;99.90;;;;;;5051626;28;20372;-88
2023/03/13 20:32:42;;;;;;;3.17;2.33;;;12.90;99.90;;;;;;5046922;28;20893;-87
2023/03/13 20:35:16;;;;;;;2.63;2.25;;;13.00;99.90;;;;;;5044642;28;20382;-88
2023/03/13 20:37:42;;;;;;;3.72;2.58;;;12.80;99.90;;;;;;5044121;28;20403;-88
2023/03/13 20:40:12;;;;;;;3.67;2.65;;;12.70;99.90;;;;;;5064976;28;20368;-87
2023/03/13 20:42:41;;;;;;;2.50;2.30;;;12.60;99.90;;;;;;5073435;28;20387;-87
2023/03/13 20:45:08;;;;;;;6.07;2.70;;;12.80;99.90;;;;;;5072125;28;20398;-87
2023/03/13 20:47:34;;;;;;;2.65;2.40;;;12.70;99.90;;;;;;5050884;28;20412;-86
2023/03/13 20:50:03;;;;;;;3.22;2.60;;;12.70;99.90;;;;;;5034084;28;20391;-88
2023/03/13 20:52:29;;;;;;;3.97;2.50;;;12.70;99.90;;;;;;5052688;28;20415;-87
2023/03/13 20:54:58;;;;;;;3.20;2.40;;;12.80;99.90;;;;;;5057275;28;20410;-87
2023/03/13 20:57:26;;;;;;;3.73;2.70;;;12.80;99.90;;;;;;5058014;28;20410;-87
2023/03/13 20:59:52;;;;;;;3.80;2.50;;;12.70;99.90;;;;;;5054944;28;20372;-87
2023/03/13 21:02:18;;;;;;;3.22;2.65;;;12.80;99.90;;;;;;5052124;28;20395;-89
2023/03/13 21:04:43;;;;;;;4.30;2.40;;;12.70;99.90;;;;;;5051412;28;20383;-89
2023/03/13 21:07:09;;;;;;;3.83;2.80;;;12.70;99.90;;;;;;5051230;28;20388;-87
2023/03/13 21:09:35;;;;;;;3.83;2.63;;;12.50;99.90;;;;;;5047921;28;20386;-87
2023/03/13 21:12:02;;;;;;;2.70;2.50;;;12.70;99.90;;;;;;5049953;28;20360;-89
2023/03/13 21:14:28;;;;;;;4.65;2.90;;;12.60;99.90;;;;;;5052362;28;20474;-89
2023/03/13 21:16:53;;;;;;;3.30;2.70;;;12.70;99.90;;;;;;5044673;28;20408;-87
2023/03/13 21:19:19;;;;;;;4.40;2.85;;;12.60;99.90;;;;;;5047342;28;20465;-88
2023/03/13 21:21:45;;;;;;;3.13;2.67;;;12.60;99.90;;;;;;5058677;28;20390;-88
2023/03/13 21:24:11;;;;;;;3.80;3.30;;;12.60;99.90;;;;;;5058867;28;20372;-88
2023/03/13 21:26:37;;;;;;;4.03;3.08;;;12.60;99.90;;;;;;5060374;28;20405;-89
2023/03/13 21:29:08;;;;;;;3.60;2.97;;;12.60;99.90;;;;;;5056467;28;20392;-87
2023/03/13 21:31:36;;;;;;;4.38;3.08;;;12.70;99.90;;;;;;5060517;28;20473;-89
2023/03/13 21:34:02;;;;;;;5.10;3.05;;;12.60;99.90;;;;;;5062065;28;20384;-86
2023/03/13 21:36:31;;;;;;;3.20;2.90;;;12.60;99.90;;;;;;5061895;28;20403;-88
2023/03/13 21:38:57;;;;;;;3.60;3.10;;;12.70;99.90;;;;;;5059148;28;20393;-88
2023/03/13 21:41:24;;;;;;;4.20;3.30;;;12.50;99.90;;;;;;5064862;28;20860;-88
2023/03/13 21:43:54;;;;;;;5.72;3.60;;;12.50;99.90;;;;;;5062625;28;20383;-88
2023/03/13 21:46:22;;;;;;;5.68;4.05;;;12.50;99.90;;;;;;5061060;28;20402;-88
2023/03/13 21:48:58;;;;;;;5.63;4.38;;;12.40;99.90;;;;;;5062347;28;20417;-87
2023/03/13 21:51:33;;;;;;;6.10;4.07;;;12.40;99.90;;;;;;5057362;28;20399;-87
2023/03/13 21:54:26;;;;;;;4.50;3.70;;;12.30;99.90;;;;;;5062157;28;20420;-88
2023/03/13 21:57:00;;;;;;;4.22;3.20;;;12.30;99.90;;;;;;5039520;28;20395;-88
2023/03/13 21:59:36;;;;;;;3.97;3.50;;;12.40;99.90;;;;;;5044387;28;20430;-87
2023/03/13 22:02:03;;;;;;;4.77;3.20;;;12.60;99.90;;;;;;5041912;28;20377;-88
2023/03/13 22:04:29;;;;;;;5.30;3.47;;;12.60;99.90;;;;;;5048747;28;20386;-88
2023/03/13 22:06:55;;;;;;;4.43;3.33;;;12.50;99.90;;;;;;5046436;28;20382;-87
2023/03/13 22:09:21;;;;;;;4.30;2.97;;;12.40;99.90;;;;;;5043182;28;20388;-86
2023/03/13 22:11:46;;;;;;;3.50;2.90;;;12.50;99.90;;;;;;5041131;28;20485;-89
2023/03/13 22:14:13;;;;;;;4.07;3.20;;;12.50;99.90;;;;;;5039341;28;20395;-88
2023/03/13 22:16:39;;;;;;;4.55;3.17;;;12.40;99.90;;;;;;5044504;28;20450;-88
2023/03/13 22:19:11;;;;;;;4.55;3.28;;;12.40;99.90;;;;;;5043354;28;20398;-88
2023/03/13 22:22:34;;;;;;;4.07;3.13;;;12.40;99.90;;;;;;5045787;28;20373;-88
2023/03/13 22:25:01;;;;;;;3.45;2.65;;;12.30;99.90;;;;;;5007982;28;20884;-88
2023/03/13 22:27:33;;;;;;;4.23;2.57;;;12.40;99.90;;;;;;5039814;28;20382;-88
2023/03/13 22:29:58;;;;;;;3.83;2.58;;;12.40;99.90;;;;;;5037944;28;20468;-88
2023/03/13 22:32:24;;;;;;;3.67;2.80;;;12.20;99.90;;;;;;5028652;28;20504;-88
2023/03/13 22:34:50;;;;;;;3.60;2.40;;;12.30;99.90;;;;;;5038510;28;20439;-88
2023/03/13 22:37:18;;;;;;;3.65;2.42;;;12.40;99.90;;;;;;5036633;28;20417;-88
2023/03/13 22:39:44;;;;;;;3.60;2.40;;;12.40;99.90;;;;;;5037172;28;20445;-87
2023/03/13 22:42:10;;;;;;;3.88;2.53;;;12.40;99.90;;;;;;5038918;28;21027;-87
2023/03/13 22:44:35;;;;;;;3.57;2.07;;;12.40;99.90;;;;;;5038311;28;20432;-87
2023/03/13 22:47:01;;;;;;;3.03;2.53;;;12.40;99.90;;;;;;5039682;28;20386;-86
2023/03/13 22:49:29;;;;;;;2.90;2.25;;;12.50;99.90;;;;;;5036225;28;20379;-87
2023/03/13 22:51:57;;;;;;;3.15;2.05;;;12.20;99.90;;;;;;5034827;28;20975;-85
2023/03/13 22:54:23;;;;;;;3.33;2.10;;;12.30;99.90;;;;;;5042211;28;20883;-87
2023/03/13 22:56:49;;;;;;;3.80;2.03;;;12.30;99.90;;;;;;5031402;28;20499;-86
2023/03/13 22:59:15;;;;;;;2.60;2.15;;;12.20;99.90;;;;;;5031857;28;20933;-85
2023/03/13 23:01:41;;;;;;;2.20;1.95;;;12.20;99.90;;;;;;5032338;28;20436;-85
2023/03/13 23:04:08;;;;;;;3.63;2.45;;;12.10;99.90;;;;;;5031351;28;20428;-87
2023/03/13 23:06:34;;;;;;;3.35;2.25;;;12.10;99.90;;;;;;5023729;28;20375;-85
2023/03/13 23:09:00;;;;;;;3.30;2.07;;;12.00;99.90;;;;;;5022534;28;20431;-86
2023/03/13 23:11:25;;;;;;;2.33;2.13;;;12.00;99.90;;;;;;5032317;28;20390;-86
2023/03/13 23:13:51;;;;;;;3.08;2.33;;;11.90;99.90;;;;;;5032263;28;20697;-86
2023/03/13 23:16:17;;;;;;;3.10;2.20;;;11.90;99.90;;;;;;5032432;28;21269;-86
2023/03/13 23:18:43;;;;;;;3.13;2.20;;;11.80;99.90;;;;;;5040488;28;20386;-85
2023/03/13 23:21:12;;;;;;;2.58;2.22;;;11.90;99.90;;;;;;5019802;28;20401;-87
2023/03/13 23:23:40;;;;;;;3.78;2.22;;;11.90;99.90;;;;;;5040285;28;20392;-87
2023/03/13 23:26:10;;;;;;;4.47;3.03;;;11.90;99.90;;;;;;5050929;28;20394;-86
2023/03/13 23:28:37;;;;;;;4.95;2.95;;;11.90;99.90;;;;;;5063338;28;20846;-86
2023/03/13 23:31:19;;;;;;;3.47;2.77;;;11.70;99.90;;;;;;5057904;28;20468;-89
2023/03/13 23:33:46;;;;;;;2.45;2.25;;;11.60;99.90;;;;;;5046927;28;20506;-87
2023/03/13 23:36:14;;;;;;;3.08;2.50;;;11.70;99.90;;;;;;5042861;28;20380;-86
2023/03/13 23:38:40;;;;;;;3.70;2.25;;;11.70;99.90;;;;;;5043282;28;20380;-88
2023/03/13 23:41:16;;;;;;;3.13;1.90;;;11.80;99.90;;;;;;5039383;28;20903;-86
2023/03/13 23:43:42;;;;;;;3.17;1.80;;;11.80;99.90;;;;;;5037493;28;20384;-86
2023/03/13 23:46:20;;;;;;;1.80;1.70;;;11.60;99.90;;;;;;5041480;28;20569;-86
2023/03/13 23:48:51;;;;;;;1.93;1.73;;;11.50;99.90;;;;;;5036674;28;20391;-88
2023/03/13 23:51:17;;;;;;;2.13;1.63;;;11.40;99.90;;;;;;5040475;28;20385;-86
2023/03/13 23:53:43;;;;;;;2.20;1.90;;;11.50;99.90;;;;;;5042314;28;20384;-86
2023/03/13 23:56:09;;;;;;;3.13;1.90;;;11.40;99.90;;;;;;5039276;28;20449;-88
2023/03/13 23:58:37;;;;;;;2.42;1.65;;;11.40;99.90;;;;;;5039861;28;20386;-87
